Stations météo

Publicité
Apt, France (7657): Température de l'air & dewpoint: 28.05.2020 01:00:00 - 03.06.2020 01:00:00 (CEST)Apt, France (7657): Vitesse du vent & gusts: 28.05.2020 01:00:00 - 03.06.2020 01:00:00 (CEST)Apt, France (7657): Direction du vent: 28.05.2020 01:00:00 - 03.06.2020 01:00:00 (CEST)Apt, France (7657): Quantités de précipitations: 28.05.2020 01:00:00 - 03.06.2020 01:00:00 (CEST)
Date & Time tt [°C] td [°C] ff [km/h] ff [knt] fx [km/h] fx [knt] dd rr [mm]
03.06.2020 01:00:00 11,1 10,3 8 5 15 8 NW 0,0
03.06.2020 00:00:00 11,4 10,5 7 4 15 8 WNW 0,0
02.06.2020 23:00:00 12,8 11,2 5 3 15 8 W 0,0
02.06.2020 22:00:00 15,4 11,8 6 3 22 12 NNW 0,0
02.06.2020 21:00:00 17,1 10,9 7 4 28 15 W 0,0
02.06.2020 20:00:00 19,8 11,3 12 6 28 15 W 0,0
02.06.2020 19:00:00 21,0 10,5 16 9 35 19 W 0,0
02.06.2020 18:00:00 21,7 10,5 16 9 32 18 W 0,0
02.06.2020 17:00:00 21,2 11,2 13 7 23 12 NW 0,0
02.06.2020 16:00:00 22,2 10,3 12 6 28 15 W 0,0
02.06.2020 15:00:00 21,1 10,9 13 7 30 16 NW 0,0
02.06.2020 14:00:00 19,5 12,3 11 6 25 13 N 0,0
02.06.2020 13:00:00 15,2 14,2 14 8 26 14 WNW 3,2
02.06.2020 12:00:00 - - - - - - - -
02.06.2020 11:00:00 - - - - - - - -
02.06.2020 10:00:00 - - - - - - - -
02.06.2020 09:00:00 - - - - - - - -
02.06.2020 08:00:00 12,1 10,8 3 1 11 6 NNE 0,0
02.06.2020 07:00:00 10,1 9,3 3 1 12 6 NE 0,0
02.06.2020 06:00:00 9,3 8,5 0 0 10 5 N 0,0
02.06.2020 05:00:00 9,6 9,0 8 4 13 7 N 0,0
02.06.2020 04:00:00 10,2 9,4 3 2 7 4 W 0,0
02.06.2020 03:00:00 10,5 9,9 0 0 5 3 N 0,0
02.06.2020 02:00:00 10,4 9,5 3 2 10 5 NNW 0,0
02.06.2020 01:00:00 10,4 9,2 0 0 12 7 N 0,0
02.06.2020 00:00:00 11,3 9,9 5 3 8 4 W 0,0
01.06.2020 23:00:00 12,0 9,7 3 1 10 5 ESE 0,0
01.06.2020 22:00:00 13,4 10,0 4 2 16 9 WNW 0,0
01.06.2020 21:00:00 15,6 9,7 8 4 20 11 W 0,0
01.06.2020 20:00:00 17,0 9,7 8 4 29 16 W 0,0
01.06.2020 19:00:00 19,9 10,0 18 10 37 20 SW 0,0
01.06.2020 18:00:00 21,3 9,5 16 9 31 17 WSW 0,0
01.06.2020 17:00:00 21,1 10,6 18 10 33 18 SW 0,0
01.06.2020 16:00:00 23,3 8,9 9 5 24 13 SW 0,0
01.06.2020 15:00:00 22,2 9,0 10 5 26 14 WSW 0,0
01.06.2020 14:00:00 20,9 9,8 11 6 27 15 SSE 0,0
01.06.2020 13:00:00 19,1 9,3 12 7 29 15 ESE 0,0
01.06.2020 12:00:00 19,2 10,7 13 7 27 15 ESE 0,0
01.06.2020 11:00:00 17,9 11,2 17 9 29 16 ESE 0,0
01.06.2020 10:00:00 17,9 11,7 14 8 25 13 ESE 0,0
01.06.2020 09:00:00 16,3 10,4 8 5 16 9 SE 0,0
01.06.2020 08:00:00 11,7 9,9 0 0 5 3 N 0,0
01.06.2020 07:00:00 9,3 9,0 0 0 5 3 N 0,0
01.06.2020 06:00:00 5,0 4,3 0 0 6 3 N 0,0
01.06.2020 05:00:00 5,3 4,4 0 0 10 5 N 0,0
01.06.2020 04:00:00 5,9 5,5 4 2 7 4 SW 0,0
01.06.2020 03:00:00 6,1 5,4 2 1 7 4 W 0,0
01.06.2020 02:00:00 7,2 6,1 0 0 7 4 N 0,0
01.06.2020 01:00:00 8,4 7,2 3 1 8 4 SSW 0,0
01.06.2020 00:00:00 10,0 7,9 2 1 14 8 E 0,0
31.05.2020 23:00:00 12,8 8,9 10 5 23 13 NW 0,0
31.05.2020 22:00:00 13,7 8,5 10 5 24 13 WNW 0,0
31.05.2020 21:00:00 15,4 8,4 9 5 23 13 WNW 0,0
31.05.2020 20:00:00 18,0 9,6 13 7 29 15 W 0,0
31.05.2020 19:00:00 19,4 9,6 16 9 31 17 WSW 0,0
31.05.2020 18:00:00 19,9 10,9 18 10 37 20 WSW 0,0
31.05.2020 17:00:00 21,3 10,1 19 10 36 20 W 0,0
31.05.2020 16:00:00 21,4 8,6 20 11 36 20 WSW 0,0
31.05.2020 15:00:00 21,6 9,5 16 9 36 19 WSW 0,0
31.05.2020 14:00:00 21,1 9,7 17 9 34 19 W 0,0
31.05.2020 13:00:00 18,8 9,6 18 10 33 18 SW 0,0
31.05.2020 12:00:00 19,6 6,7 9 5 29 15 WNW 0,0
31.05.2020 11:00:00 19,4 7,8 8 4 26 14 N 0,0
31.05.2020 10:00:00 18,1 8,4 10 5 21 11 NNW 0,0
31.05.2020 09:00:00 16,3 7,0 5 3 11 6 N 0,0
31.05.2020 08:00:00 11,2 7,7 3 2 6 3 ENE 0,0
31.05.2020 07:00:00 4,9 4,3 0 0 4 2 N 0,0
31.05.2020 06:00:00 2,7 2,3 3 2 8 4 SW 0,0
31.05.2020 05:00:00 3,0 2,3 0 0 6 3 N 0,0
31.05.2020 04:00:00 3,9 3,3 0 0 5 3 N 0,0
31.05.2020 03:00:00 4,4 3,2 0 0 9 5 N 0,0
31.05.2020 02:00:00 4,8 3,8 3 1 6 3 SE 0,0
31.05.2020 01:00:00 6,0 4,5 3 1 7 4 NNE 0,0
31.05.2020 00:00:00 8,0 5,3 2 1 17 9 WNW 0,0
30.05.2020 23:00:00 11,0 6,5 9 5 23 12 W 0,0
30.05.2020 22:00:00 12,4 6,7 12 7 23 12 W 0,0
30.05.2020 21:00:00 14,2 6,3 13 7 29 16 W 0,0
30.05.2020 20:00:00 16,2 6,3 16 9 34 18 W 0,0
30.05.2020 19:00:00 17,9 7,0 21 11 44 24 W 0,0
30.05.2020 18:00:00 18,9 7,3 23 12 40 22 W 0,0
30.05.2020 17:00:00 20,4 8,4 17 9 37 20 W 0,0
30.05.2020 16:00:00 20,3 7,6 18 10 38 21 WSW 0,0
30.05.2020 15:00:00 20,4 6,3 18 10 47 26 W 0,0
30.05.2020 14:00:00 20,2 6,5 14 8 31 17 WNW 0,0
30.05.2020 13:00:00 19,7 7,1 13 7 31 17 NW 0,0
30.05.2020 12:00:00 18,9 6,4 11 6 29 16 NW 0,0
30.05.2020 11:00:00 17,3 7,6 12 7 23 13 WNW 0,0
30.05.2020 10:00:00 15,5 7,0 10 5 23 13 N 0,0
30.05.2020 09:00:00 12,5 9,3 5 3 9 5 N 0,0
30.05.2020 08:00:00 9,1 9,0 5 3 8 5 NNW 0,0
30.05.2020 07:00:00 5,5 5,4 0 0 5 3 N 0,0
30.05.2020 06:00:00 3,5 3,1 0 0 5 3 N 0,0
30.05.2020 05:00:00 4,1 3,5 2 1 8 4 SW 0,0
30.05.2020 04:00:00 4,9 4,6 0 0 10 5 N 0,0
30.05.2020 03:00:00 5,2 4,8 3 1 10 5 WNW 0,0
30.05.2020 02:00:00 5,9 5,5 6 3 11 6 WSW 0,0
30.05.2020 01:00:00 5,7 5,0 2 1 8 4 SSE 0,0
30.05.2020 00:00:00 6,9 6,0 3 1 7 4 WSW 0,0
29.05.2020 23:00:00 9,4 8,2 2 1 6 4 E 0,0
29.05.2020 22:00:00 10,4 9,3 3 2 22 12 ESE 0,0
29.05.2020 21:00:00 11,0 9,3 14 8 24 13 ESE 0,0
29.05.2020 20:00:00 11,9 9,6 11 6 23 13 ESE 0,0
29.05.2020 19:00:00 12,0 10,2 10 6 36 20 SE 0,0
29.05.2020 18:00:00 12,9 11,0 22 12 43 23 SE 0,2
29.05.2020 17:00:00 14,7 9,9 20 11 42 23 SE 0,0
29.05.2020 16:00:00 16,4 11,3 22 12 41 22 SE 0,0
29.05.2020 15:00:00 16,1 10,8 19 10 46 25 SSE 0,0
29.05.2020 14:00:00 18,5 11,8 22 12 41 22 SE 0,0
29.05.2020 13:00:00 17,8 12,0 19 10 39 21 SE 0,0
29.05.2020 12:00:00 18,2 10,8 18 10 35 19 SE 0,0
29.05.2020 11:00:00 18,1 8,9 18 10 29 16 ESE 0,0
29.05.2020 10:00:00 19,0 7,7 6 3 14 7 NE 0,0
29.05.2020 09:00:00 16,7 7,9 8 4 14 7 NNW 0,0
29.05.2020 08:00:00 11,8 9,5 2 1 7 4 W 0,0
29.05.2020 07:00:00 6,7 6,0 0 0 9 5 N 0,0
29.05.2020 06:00:00 4,9 4,5 4 2 7 4 NNW 0,0
29.05.2020 05:00:00 4,9 4,3 2 1 8 4 ESE 0,0
29.05.2020 04:00:00 5,8 4,9 4 2 8 5 NW 0,0
29.05.2020 03:00:00 6,6 6,0 3 2 6 3 W 0,0
29.05.2020 02:00:00 6,9 5,7 2 1 7 4 E 0,0
29.05.2020 01:00:00 8,3 6,6 3 1 10 5 NNW 0,0
29.05.2020 00:00:00 10,2 7,6 4 2 12 6 SSW 0,0
28.05.2020 23:00:00 11,6 7,7 4 2 22 12 S 0,0
28.05.2020 22:00:00 15,8 8,0 11 6 30 16 W 0,0
28.05.2020 21:00:00 16,8 9,0 16 8 26 14 SW 0,0
28.05.2020 20:00:00 20,7 4,7 15 8 40 21 W 0,0
28.05.2020 19:00:00 22,1 6,3 17 9 40 21 WNW 0,0
28.05.2020 18:00:00 22,6 6,4 22 12 44 24 W 0,0
28.05.2020 17:00:00 22,9 7,0 22 12 41 22 W 0,0
28.05.2020 16:00:00 23,0 7,9 20 11 40 22 W 0,0
28.05.2020 15:00:00 22,6 9,7 16 9 32 17 W 0,0
28.05.2020 14:00:00 22,0 10,5 14 8 28 15 WNW 0,0
28.05.2020 13:00:00 21,8 10,6 12 7 33 18 W 0,0
28.05.2020 12:00:00 21,8 10,3 13 7 28 15 NNW 0,0
28.05.2020 11:00:00 20,4 7,4 6 4 23 13 W 0,0
28.05.2020 10:00:00 18,9 9,4 6 3 14 8 N 0,0
28.05.2020 09:00:00 17,2 8,6 6 3 14 7 N 0,0
28.05.2020 08:00:00 13,7 9,5 2 1 4 2 NE 0,0
28.05.2020 07:00:00 7,4 6,5 0 0 6 3 N 0,0
28.05.2020 06:00:00 5,4 4,7 3 1 7 4 N 0,0
28.05.2020 05:00:00 5,7 5,0 0 0 6 3 N 0,0
28.05.2020 04:00:00 6,1 5,1 0 0 5 3 N 0,0
28.05.2020 03:00:00 7,5 5,8 3 2 15 8 N 0,0
28.05.2020 02:00:00 9,0 6,3 10 6 16 8 W 0,0
28.05.2020 01:00:00 10,0 7,6 9 5 25 13 NNW 0,0

tt = Température de l'air
td = dewpoint
ff = Vitesse du vent
fx = gusts
dd = Direction du vent
rr = Quantités de précipitations

stations d'obs. à proximité